Dauntless Aviation
Airports Europe Ireland
EINN
SNN

Shannon Airport

Shannon, IRELAND

Airport Info
Suggest Updated Information for this Airport

Location

Latitude / Longitude: 52°42'7"N / 8°55'29"W
  52°42.12'N / 8°55.488'W
  52.7020 / -8.9248

Nearby radio navigation aids

ENS ENNIS NDB. 186.3° 12.2nm from ENS to field.
FOY FOYNES NDB. 57.3° 12.8nm from FOY to field.
SHA SHANNON VOR/DME. 238.5° 1.8nm from SHA to field.

Runway Information

Runway 06 /24

Dimensions: 10496 x 148 ft.
Surface: ASP
 
Runway 06
Runway 24
Latitude: 52.693172 52.710008
Longitude: -8.943519 -8.907742
Elevation: 46 ft. 46 ft.
Runway true heading: 48.7 228.7
 

Runway 13 /31

Dimensions: 5643 x 148 ft.
Surface: ASP
 
Runway 13
Runway 31
Latitude: 52.702003 52.693119
Longitude: -8.925825 -8.905003
Elevation: 11 ft. 11 ft.
Runway true heading: 121.7 301.7
 

Instrument Procedures

IAPs (Instrument Approach Procedures)

  Aerodrome Information (Textual)
Satellite photo at:
Airport distance calculator
From:
Weather Reports

METAR

EINN

EINN 230730Z 11014KT 9999 FEW010 BKN060 BKN090 12/11 Q1000 NOSIG
EIKY
37.9nm S
EIKY 230730Z 13009KT 9999 -RA BKN026 14/12 Q0999

TAF

EINN
TAF EINN 230500Z 2306/2406 12010KT 9999 BKN025 BECMG 2306/2309 13015G25KT TEMPO 2306/2315 4000 RA BKN008 BECMG 2312/2315 17012KT PROB40 TEMPO 2315/2324 4000 SHRA BKN012 SCT018CB BECMG 2321/2324 16008KT
EIKY
37.9nm S
TAF EIKY 230500Z 2306/2315 13015G26KT 9999 BKN016 TEMPO 2306/2312 3000 RA BKN008 BECMG 2311/2313 19012KT PROB40 TEMPO 2312/2315 3000 SHRA BKN008 SCT018CB
Safelog

 

Dauntless Aviation

© 2007-2019 Dauntless Aviation, all rights reserved
Information provided via PilotNav comes from a variety of official and unofficial data sources. As errors are possible, do not use PilotNav for primary flight planning purposes. Verify any information that you receive via PilotNav with current and canonical charts and other official documents. The material in this database is subject to database copyrights held by Dauntless Aviation and may not be copied without the express permission of Dauntless Aviation - licenses for use of part of all of this data are available for purchase; enquire via the Dauntless Aviation helpdesk. A number of mechanisms and markers exist in the database to protect against and identify infringement / copyright. Automated queries against this website are stictly prohibited, and all activity is logged and analyzed.